Time;durP1;ratioP1;P1;durP2;ratioP2;P2;SDS_P1;SDS_P2;PMS_P1;PMS_P2;Temp;Humidity;BMP_temperature;BMP_pressure;BME280_temperature;BME280_humidity;BME280_pressure;Samples;Min_cycle;Max_cycle;Signal;HPM_P1;HPM_P2
2022/03/12 00:01:15;;;;;;;7.83;4.43;;;3.70;39.50;;;;;;4998806;28;20649;-62
2022/03/12 00:03:40;;;;;;;8.50;5.10;;;3.60;39.60;;;;;;4998926;28;20189;-62
2022/03/12 00:06:09;;;;;;;5.93;4.27;;;3.60;39.60;;;;;;4997997;28;20662;-62
2022/03/12 00:08:44;;;;;;;8.17;5.10;;;3.60;39.60;;;;;;4998185;28;20210;-62
2022/03/12 00:11:34;;;;;;;8.73;4.87;;;3.60;39.70;;;;;;4996735;28;20213;-63
2022/03/12 00:14:03;;;;;;;7.90;4.47;;;3.60;39.70;;;;;;4980813;28;20186;-65
2022/03/12 00:16:29;;;;;;;6.20;4.80;;;3.60;39.80;;;;;;4996303;28;20163;-62
2022/03/12 00:19:02;;;;;;;8.43;4.50;;;3.60;39.80;;;;;;4996384;28;20208;-62
2022/03/12 00:21:30;;;;;;;8.30;4.80;;;3.60;39.70;;;;;;4996823;28;20182;-63
2022/03/12 00:23:56;;;;;;;7.80;4.73;;;3.50;40.00;;;;;;4995628;28;20193;-62
2022/03/12 00:26:23;;;;;;;8.70;4.83;;;3.50;40.10;;;;;;4995843;28;20250;-64
2022/03/12 00:28:50;;;;;;;8.67;4.70;;;3.40;40.20;;;;;;4996025;28;20239;-63
2022/03/12 00:31:16;;;;;;;7.10;4.70;;;3.40;40.20;;;;;;4995604;28;20193;-61
2022/03/12 00:33:42;;;;;;;9.60;4.87;;;3.40;40.00;;;;;;4995779;28;20163;-62
2022/03/12 00:36:08;;;;;;;7.17;4.90;;;3.40;40.20;;;;;;4995508;28;20382;-63
2022/03/12 00:38:34;;;;;;;7.07;4.30;;;3.40;40.20;;;;;;4995303;28;20178;-61
2022/03/12 00:41:02;;;;;;;7.67;5.00;;;3.50;40.10;;;;;;4995276;28;20198;-63
2022/03/12 00:43:28;;;;;;;7.57;4.67;;;3.40;40.80;;;;;;4995940;28;20669;-63
2022/03/12 00:45:53;;;;;;;7.23;4.87;;;3.20;40.10;;;;;;4995077;28;20255;-63
2022/03/12 00:48:19;;;;;;;7.40;4.57;;;3.30;40.10;;;;;;4994883;28;20267;-63
2022/03/12 00:50:45;;;;;;;7.70;4.63;;;3.30;40.10;;;;;;4995210;28;20274;-63
2022/03/12 00:53:10;;;;;;;8.50;4.67;;;3.30;40.10;;;;;;4995141;28;20205;-62
2022/03/12 00:55:36;;;;;;;8.63;4.20;;;3.40;40.10;;;;;;4995959;28;20541;-62
2022/03/12 00:58:03;;;;;;;6.67;4.17;;;3.30;40.10;;;;;;4997750;28;20174;-64
2022/03/12 01:00:28;;;;;;;7.03;4.23;;;3.30;40.10;;;;;;4996076;28;20201;-63
2022/03/12 01:02:54;;;;;;;8.80;5.07;;;3.30;40.10;;;;;;4995417;28;20202;-63
2022/03/12 01:05:39;;;;;;;9.17;4.73;;;3.30;40.10;;;;;;4995065;28;20159;-62
2022/03/12 01:08:05;;;;;;;10.27;4.33;;;3.30;40.10;;;;;;4995723;28;20158;-61
2022/03/12 01:10:31;;;;;;;8.50;4.77;;;3.30;40.10;;;;;;4994807;28;20674;-62
2022/03/12 01:12:57;;;;;;;8.80;4.70;;;3.20;39.90;;;;;;4994825;28;20202;-62
2022/03/12 01:15:22;;;;;;;5.77;3.87;;;3.20;40.10;;;;;;4994938;28;20169;-62
2022/03/12 01:17:48;;;;;;;8.43;4.20;;;3.30;40.10;;;;;;4995640;28;20492;-62
2022/03/12 01:20:14;;;;;;;6.60;4.63;;;3.30;40.10;;;;;;4994623;28;20201;-63
2022/03/12 01:22:41;;;;;;;9.30;4.10;;;3.20;40.20;;;;;;4993578;28;20221;-64
2022/03/12 01:25:08;;;;;;;7.53;4.30;;;3.20;40.10;;;;;;4976902;28;20201;-63
2022/03/12 01:27:34;;;;;;;7.37;4.23;;;3.20;40.00;;;;;;4994348;28;20242;-62
2022/03/12 01:30:01;;;;;;;6.70;4.20;;;3.10;40.20;;;;;;4994843;28;20232;-62
2022/03/12 01:32:26;;;;;;;6.83;4.37;;;3.20;40.30;;;;;;4994753;28;20248;-62
2022/03/12 01:34:52;;;;;;;7.17;4.30;;;3.10;40.40;;;;;;4994981;28;20176;-62
2022/03/12 01:37:19;;;;;;;6.13;3.67;;;3.10;40.30;;;;;;4994946;28;20517;-63
2022/03/12 01:39:48;;;;;;;7.53;4.57;;;3.10;40.40;;;;;;4994774;28;20224;-63
2022/03/12 01:42:15;;;;;;;5.70;4.23;;;3.10;40.30;;;;;;4994996;28;20217;-64
2022/03/12 01:44:44;;;;;;;8.57;4.00;;;3.00;40.40;;;;;;4994993;28;20159;-63
2022/03/12 01:47:11;;;;;;;6.77;4.20;;;3.10;40.00;;;;;;4994776;28;20159;-63
2022/03/12 01:49:37;;;;;;;6.37;3.93;;;3.10;40.00;;;;;;4993055;28;20178;-62
2022/03/12 01:52:04;;;;;;;8.63;4.50;;;3.10;40.00;;;;;;4994605;28;20167;-63
2022/03/12 01:54:30;;;;;;;7.33;4.10;;;3.00;40.10;;;;;;4994633;28;20194;-62
2022/03/12 01:56:58;;;;;;;6.63;4.17;;;3.10;40.00;;;;;;4994036;28;20210;-62
2022/03/12 01:59:24;;;;;;;7.13;4.20;;;3.10;40.10;;;;;;4994582;28;20174;-62
2022/03/12 02:01:52;;;;;;;6.97;4.00;;;3.00;39.90;;;;;;4995424;28;20175;-64
2022/03/12 02:04:20;;;;;;;6.37;4.23;;;3.00;40.10;;;;;;4998212;28;20278;-62
2022/03/12 02:06:46;;;;;;;7.83;4.43;;;2.90;40.30;;;;;;4998501;28;20172;-63
2022/03/12 02:09:15;;;;;;;8.57;4.07;;;2.90;40.30;;;;;;4998050;28;20193;-63
2022/03/12 02:11:45;;;;;;;7.03;4.37;;;2.90;40.20;;;;;;4998241;28;20166;-64
2022/03/12 02:14:12;;;;;;;8.80;4.20;;;2.90;40.10;;;;;;4997678;28;20559;-62
2022/03/12 02:16:49;;;;;;;4.50;3.37;;;3.00;39.90;;;;;;4997422;28;20170;-63
2022/03/12 02:19:17;;;;;;;6.93;3.87;;;3.00;39.60;;;;;;4998541;28;20537;-64
2022/03/12 02:22:00;;;;;;;9.67;3.97;;;3.00;39.60;;;;;;4999465;28;20185;-62
2022/03/12 02:24:30;;;;;;;5.73;3.60;;;3.00;39.50;;;;;;5000758;28;20269;-63
2022/03/12 02:26:59;;;;;;;5.33;3.60;;;3.00;39.60;;;;;;4998918;28;20317;-62
2022/03/12 02:29:26;;;;;;;5.67;3.50;;;3.00;39.50;;;;;;4997765;28;20213;-62
2022/03/12 02:31:57;;;;;;;6.83;3.50;;;3.00;39.40;;;;;;4997607;28;20162;-62
2022/03/12 02:34:42;;;;;;;5.90;3.60;;;3.00;39.30;;;;;;4997728;28;20212;-62
2022/03/12 02:37:09;;;;;;;5.07;3.23;;;3.00;39.20;;;;;;4997715;28;20179;-63
2022/03/12 02:39:37;;;;;;;5.27;3.23;;;3.00;39.10;;;;;;4997274;28;20256;-64
2022/03/12 02:42:07;;;;;;;6.97;3.93;;;3.00;39.20;;;;;;4997343;28;20185;-64
2022/03/12 02:44:34;;;;;;;7.47;4.17;;;3.00;39.20;;;;;;4997518;28;20175;-63
2022/03/12 02:47:21;;;;;;;6.80;3.90;;;2.90;39.30;;;;;;4996778;28;20160;-63
2022/03/12 02:49:46;;;;;;;6.10;3.53;;;2.90;39.20;;;;;;4997086;28;20198;-62
2022/03/12 02:52:13;;;;;;;8.00;3.33;;;2.90;39.30;;;;;;4980575;28;20633;-63
2022/03/12 02:54:41;;;;;;;6.00;3.47;;;3.00;39.00;;;;;;5016503;28;20219;-63
2022/03/12 02:57:07;;;;;;;7.13;3.70;;;3.00;39.00;;;;;;5016820;28;20566;-63
2022/03/12 02:59:33;;;;;;;5.47;3.47;;;2.90;38.80;;;;;;5016225;28;20236;-63
2022/03/12 03:02:03;;;;;;;7.97;3.57;;;2.90;38.70;;;;;;5016894;28;20180;-65
2022/03/12 03:04:34;;;;;;;11.43;4.30;;;2.90;38.70;;;;;;5016399;28;20173;-65
2022/03/12 03:07:04;;;;;;;6.07;3.70;;;3.00;38.70;;;;;;5016380;28;20155;-62
2022/03/12 03:09:30;;;;;;;4.90;3.63;;;2.90;38.50;;;;;;5016259;28;20177;-64
2022/03/12 03:11:57;;;;;;;7.17;3.93;;;3.00;38.30;;;;;;5016317;28;20620;-63
2022/03/12 03:14:26;;;;;;;5.80;3.33;;;3.10;38.20;;;;;;4999012;28;20589;-62
2022/03/12 03:16:53;;;;;;;7.10;3.27;;;3.00;37.90;;;;;;4998265;28;20265;-64
2022/03/12 03:19:24;;;;;;;9.90;4.00;;;3.00;37.80;;;;;;5016243;28;20170;-63
2022/03/12 03:21:55;;;;;;;5.80;3.70;;;3.00;37.90;;;;;;5017026;28;20172;-62
2022/03/12 03:24:22;;;;;;;7.27;3.63;;;3.00;37.80;;;;;;4998365;28;20177;-62
2022/03/12 03:26:47;;;;;;;6.23;3.33;;;3.00;37.90;;;;;;4998462;28;20613;-62
2022/03/12 03:29:15;;;;;;;6.03;3.43;;;3.00;38.40;;;;;;5015777;28;20170;-63
2022/03/12 03:31:41;;;;;;;5.30;2.97;;;3.00;37.70;;;;;;5015714;28;20185;-63
2022/03/12 03:34:06;;;;;;;4.93;3.43;;;3.00;37.50;;;;;;4998550;28;20180;-64
2022/03/12 03:36:32;;;;;;;4.43;3.40;;;3.00;37.50;;;;;;5016367;28;20462;-63
2022/03/12 03:38:58;;;;;;;11.30;3.30;;;3.00;37.40;;;;;;5016483;28;20231;-62
2022/03/12 03:41:24;;;;;;;5.00;3.30;;;3.00;37.20;;;;;;5018614;28;20197;-63
2022/03/12 03:43:52;;;;;;;5.63;3.40;;;3.00;37.10;;;;;;5021436;28;20209;-63
2022/03/12 03:46:20;;;;;;;6.63;3.53;;;2.90;37.10;;;;;;5022090;28;20482;-64
2022/03/12 03:48:48;;;;;;;7.07;3.77;;;3.00;37.10;;;;;;5022859;28;20257;-64
2022/03/12 03:51:14;;;;;;;5.57;3.10;;;2.90;37.30;;;;;;5023872;28;20188;-63
2022/03/12 03:53:39;;;;;;;5.80;2.80;;;2.90;36.80;;;;;;5022871;28;20169;-63
2022/03/12 03:56:06;;;;;;;5.77;3.37;;;3.00;36.60;;;;;;5022582;28;20477;-63
2022/03/12 03:58:32;;;;;;;4.00;2.93;;;3.00;36.10;;;;;;5020128;28;20199;-64
2022/03/12 04:01:06;;;;;;;5.97;3.33;;;3.00;36.00;;;;;;5018610;28;20201;-63
2022/03/12 04:03:34;;;;;;;4.83;2.97;;;3.00;35.70;;;;;;5016001;28;20628;-63
2022/03/12 04:06:01;;;;;;;4.43;2.90;;;3.00;35.40;;;;;;5015738;28;20605;-64
2022/03/12 04:08:27;;;;;;;3.77;2.93;;;3.00;35.50;;;;;;4998359;28;20184;-63
2022/03/12 04:10:53;;;;;;;4.20;2.70;;;2.90;35.40;;;;;;5015069;28;20611;-64
2022/03/12 04:13:21;;;;;;;7.30;3.27;;;2.90;35.50;;;;;;5015278;28;20161;-62
2022/03/12 04:15:48;;;;;;;5.50;3.07;;;2.90;35.50;;;;;;5015844;28;20651;-63
2022/03/12 04:18:15;;;;;;;4.30;2.73;;;2.90;35.50;;;;;;4997953;28;20236;-63
2022/03/12 04:20:43;;;;;;;5.07;3.00;;;2.80;35.30;;;;;;5015221;28;20247;-64
2022/03/12 04:23:12;;;;;;;5.43;2.93;;;2.90;34.90;;;;;;5015223;28;20671;-64
2022/03/12 04:25:39;;;;;;;4.90;2.93;;;2.90;34.90;;;;;;5014575;28;20645;-63
2022/03/12 04:28:06;;;;;;;3.70;2.73;;;2.90;34.90;;;;;;5014929;28;20233;-62
2022/03/12 04:30:32;;;;;;;5.70;3.23;;;2.90;34.50;;;;;;5015338;28;20165;-62
2022/03/12 04:32:58;;;;;;;6.47;3.70;;;2.80;34.50;;;;;;5014806;28;20646;-62
2022/03/12 04:35:24;;;;;;;3.90;3.00;;;2.80;34.80;;;;;;5014516;28;20178;-63
2022/03/12 04:37:52;;;;;;;4.47;2.70;;;2.70;34.70;;;;;;5014961;28;20184;-62
2022/03/12 04:40:25;;;;;;;5.07;3.07;;;2.70;34.70;;;;;;5014558;28;20193;-63
2022/03/12 04:42:51;;;;;;;5.67;3.70;;;2.80;34.70;;;;;;5014616;28;20169;-62
2022/03/12 04:45:20;;;;;;;4.77;3.20;;;2.70;34.70;;;;;;5014880;28;20510;-63
2022/03/12 04:47:48;;;;;;;6.17;3.07;;;2.70;34.70;;;;;;5014683;28;20170;-61
2022/03/12 04:50:16;;;;;;;5.57;3.63;;;2.60;34.70;;;;;;4996832;28;20212;-62
2022/03/12 04:52:47;;;;;;;4.93;3.10;;;2.50;34.60;;;;;;5014883;28;20170;-65
2022/03/12 04:55:16;;;;;;;6.13;3.17;;;2.50;34.80;;;;;;5014156;28;20558;-62
2022/03/12 04:57:42;;;;;;;5.93;3.37;;;2.60;34.70;;;;;;5014750;28;20165;-63
2022/03/12 05:00:17;;;;;;;4.23;2.70;;;2.50;34.70;;;;;;5014761;28;20643;-63
2022/03/12 05:02:45;;;;;;;5.17;3.50;;;2.50;34.80;;;;;;5014357;28;20296;-63
2022/03/12 05:05:13;;;;;;;5.90;3.30;;;2.50;34.80;;;;;;5014410;28;20173;-62
2022/03/12 05:07:43;;;;;;;7.33;3.43;;;2.50;35.20;;;;;;5013977;28;20253;-63
2022/03/12 05:10:10;;;;;;;5.03;3.50;;;2.50;35.20;;;;;;5013736;28;20169;-63
2022/03/12 05:12:39;;;;;;;5.87;3.13;;;2.50;34.60;;;;;;5015571;28;20566;-63
2022/03/12 05:15:06;;;;;;;6.30;3.50;;;2.50;34.70;;;;;;4997972;28;20523;-63
2022/03/12 05:17:38;;;;;;;5.30;3.00;;;2.40;34.50;;;;;;5013654;28;20170;-63
2022/03/12 05:20:05;;;;;;;3.50;2.60;;;2.40;34.50;;;;;;5014066;28;20315;-64
2022/03/12 05:22:30;;;;;;;4.97;3.00;;;2.50;34.60;;;;;;5013794;28;20598;-63
2022/03/12 05:24:56;;;;;;;5.70;3.10;;;2.50;34.60;;;;;;5014056;28;20187;-62
2022/03/12 05:27:22;;;;;;;6.90;3.83;;;2.30;34.50;;;;;;5014107;28;20264;-62
2022/03/12 05:29:47;;;;;;;5.17;3.30;;;2.40;34.50;;;;;;5014047;28;20154;-63
2022/03/12 05:32:13;;;;;;;5.03;3.30;;;2.50;34.60;;;;;;4996179;28;20177;-63
2022/03/12 05:34:39;;;;;;;6.47;3.63;;;2.40;34.50;;;;;;5014180;28;20165;-62
2022/03/12 05:37:08;;;;;;;8.37;4.13;;;2.40;34.50;;;;;;5015173;28;20212;-63
2022/03/12 05:39:35;;;;;;;6.13;3.40;;;2.40;34.50;;;;;;5018169;28;20158;-62
2022/03/12 05:42:05;;;;;;;5.97;4.00;;;2.40;34.50;;;;;;5018204;28;20541;-62
2022/03/12 05:44:39;;;;;;;5.03;3.73;;;2.40;34.50;;;;;;5018092;28;20289;-66
2022/03/12 05:47:09;;;;;;;8.20;4.03;;;2.40;34.50;;;;;;5017818;28;20177;-62
2022/03/12 05:49:35;;;;;;;10.10;3.80;;;2.30;34.90;;;;;;5018244;28;20181;-64
2022/03/12 05:52:00;;;;;;;5.67;2.93;;;2.30;35.10;;;;;;5017712;28;20158;-62
2022/03/12 05:54:26;;;;;;;5.87;3.47;;;2.30;35.10;;;;;;5018011;28;20169;-63
2022/03/12 05:56:51;;;;;;;5.20;3.10;;;2.30;35.00;;;;;;5017896;28;20209;-62
2022/03/12 05:59:18;;;;;;;8.43;3.07;;;2.30;35.20;;;;;;5017421;28;20158;-63
2022/03/12 06:01:43;;;;;;;6.03;3.37;;;2.40;35.30;;;;;;5000648;28;20541;-62
2022/03/12 06:04:10;;;;;;;4.73;2.83;;;2.50;35.40;;;;;;5018073;28;20170;-63
2022/03/12 06:06:35;;;;;;;5.60;3.33;;;2.40;35.30;;;;;;5017300;28;20154;-64
2022/03/12 06:09:07;;;;;;;5.27;2.87;;;2.40;35.20;;;;;;5018302;28;20174;-63
2022/03/12 06:11:35;;;;;;;5.00;2.83;;;2.60;34.90;;;;;;5017225;28;20621;-62
2022/03/12 06:14:01;;;;;;;6.90;3.63;;;2.60;34.70;;;;;;5017386;28;20197;-62
2022/03/12 06:16:27;;;;;;;6.20;3.40;;;2.60;34.70;;;;;;5017274;28;20194;-62
2022/03/12 06:18:53;;;;;;;6.00;2.97;;;2.60;34.70;;;;;;5018714;28;20261;-62
2022/03/12 06:21:20;;;;;;;3.60;2.80;;;2.80;34.90;;;;;;5019740;28;20265;-63
2022/03/12 06:23:45;;;;;;;5.57;3.30;;;2.70;34.80;;;;;;5022267;28;20212;-62
2022/03/12 06:26:14;;;;;;;6.10;4.00;;;2.80;34.80;;;;;;5023786;28;20647;-63
2022/03/12 06:28:44;;;;;;;4.53;2.87;;;2.80;34.80;;;;;;5023641;28;20217;-66
2022/03/12 06:31:12;;;;;;;7.10;3.83;;;2.90;34.90;;;;;;5022555;28;20165;-63
2022/03/12 06:33:39;;;;;;;6.33;3.00;;;2.90;35.60;;;;;;5008579;28;20284;-63
2022/03/12 06:36:05;;;;;;;4.03;2.90;;;2.90;34.90;;;;;;5026293;28;20164;-64
2022/03/12 06:38:34;;;;;;;5.73;3.37;;;3.00;35.00;;;;;;5006994;28;20491;-63
2022/03/12 06:41:00;;;;;;;7.67;3.53;;;3.10;34.70;;;;;;5024332;28;20193;-64
2022/03/12 06:43:28;;;;;;;5.60;3.10;;;3.20;35.10;;;;;;5025762;28;20177;-62
2022/03/12 06:45:56;;;;;;;7.30;3.30;;;3.20;34.60;;;;;;5026200;28;20155;-62
2022/03/12 06:48:22;;;;;;;4.43;2.90;;;3.20;34.40;;;;;;5025216;28;20196;-63
2022/03/12 06:50:48;;;;;;;5.47;3.13;;;3.30;34.50;;;;;;5020765;28;20257;-64
2022/03/12 06:53:15;;;;;;;3.93;2.90;;;3.30;34.40;;;;;;5018319;28;20320;-64
2022/03/12 06:55:41;;;;;;;4.23;2.63;;;3.40;34.50;;;;;;5017531;28;20178;-63
2022/03/12 06:58:07;;;;;;;4.67;3.23;;;3.40;34.10;;;;;;5017285;28;20162;-64
2022/03/12 07:00:33;;;;;;;6.20;3.40;;;3.40;34.40;;;;;;5016733;28;20401;-63
2022/03/12 07:02:59;;;;;;;9.20;3.30;;;3.50;34.10;;;;;;5017200;28;20181;-64
2022/03/12 07:05:26;;;;;;;6.00;3.13;;;3.60;34.10;;;;;;5016783;28;20166;-62
2022/03/12 07:07:53;;;;;;;5.00;2.93;;;3.50;34.00;;;;;;5016494;28;20220;-63
2022/03/12 07:10:19;;;;;;;6.00;3.40;;;3.60;34.10;;;;;;5016322;28;20173;-62
2022/03/12 07:12:45;;;;;;;6.47;3.13;;;3.70;34.00;;;;;;4998918;28;20193;-62
2022/03/12 07:15:16;;;;;;;8.93;3.40;;;3.70;33.90;;;;;;5016920;28;20518;-63
2022/03/12 07:17:42;;;;;;;5.07;2.83;;;3.70;33.90;;;;;;5016954;28;20253;-62
2022/03/12 07:20:10;;;;;;;4.60;3.20;;;3.90;34.20;;;;;;5015992;28;20195;-63
2022/03/12 07:22:35;;;;;;;4.43;3.37;;;3.80;33.90;;;;;;5016055;28;20222;-62
2022/03/12 07:25:01;;;;;;;4.53;3.27;;;3.90;33.90;;;;;;5016317;28;20209;-63
2022/03/12 07:27:27;;;;;;;4.67;3.03;;;3.90;33.90;;;;;;4998687;28;20319;-63
2022/03/12 07:29:53;;;;;;;4.67;3.07;;;3.90;33.90;;;;;;5015556;28;20166;-65
2022/03/12 07:32:20;;;;;;;6.57;3.70;;;4.10;34.00;;;;;;5016270;28;20266;-63
2022/03/12 07:34:47;;;;;;;6.47;3.37;;;4.20;33.90;;;;;;4998497;28;20259;-64
2022/03/12 07:37:13;;;;;;;5.10;3.50;;;4.00;33.70;;;;;;5016297;28;20249;-66
2022/03/12 07:39:39;;;;;;;6.00;3.33;;;4.10;33.50;;;;;;5015725;28;20198;-63
2022/03/12 07:42:05;;;;;;;5.07;2.73;;;4.40;33.60;;;;;;5015451;28;20174;-62
2022/03/12 07:44:32;;;;;;;3.17;1.90;;;4.40;33.70;;;;;;5015831;28;20506;-64
2022/03/12 07:46:58;;;;;;;6.17;2.87;;;4.50;33.60;;;;;;5015169;28;20179;-64
2022/03/12 07:49:25;;;;;;;7.77;3.67;;;4.40;33.40;;;;;;5015746;28;20175;-62
2022/03/12 07:51:51;;;;;;;5.20;3.23;;;4.50;33.60;;;;;;5011024;28;20247;-63
2022/03/12 07:54:17;;;;;;;4.73;2.40;;;4.60;33.60;;;;;;5015111;28;20320;-63
2022/03/12 07:56:43;;;;;;;5.33;3.07;;;4.80;33.40;;;;;;5015273;28;20542;-63
2022/03/12 07:59:10;;;;;;;4.40;2.50;;;4.80;33.40;;;;;;5015224;28;20175;-62
2022/03/12 08:01:37;;;;;;;5.20;2.50;;;4.70;32.90;;;;;;4998482;28;20198;-61
2022/03/12 08:04:03;;;;;;;3.33;2.63;;;4.80;33.10;;;;;;5019368;28;20227;-63
2022/03/12 08:06:30;;;;;;;6.63;3.13;;;4.80;33.10;;;;;;5019137;28;20187;-62
2022/03/12 08:08:57;;;;;;;7.07;2.63;;;5.00;32.90;;;;;;5016123;28;20173;-63
2022/03/12 08:11:27;;;;;;;4.50;2.80;;;5.10;32.70;;;;;;5015865;28;20253;-62
2022/03/12 08:13:54;;;;;;;3.77;2.50;;;5.10;32.80;;;;;;5015385;28;20179;-64
2022/03/12 08:16:20;;;;;;;3.67;2.90;;;5.00;32.50;;;;;;5015464;28;20246;-63
2022/03/12 08:18:46;;;;;;;4.63;2.60;;;5.10;32.60;;;;;;5016075;28;20243;-63
2022/03/12 08:21:12;;;;;;;4.20;2.83;;;5.10;32.50;;;;;;5014810;28;20201;-63
2022/03/12 08:23:39;;;;;;;4.40;2.40;;;5.20;32.60;;;;;;5014805;28;20183;-64
2022/03/12 08:26:05;;;;;;;4.43;2.70;;;5.20;32.40;;;;;;5014839;28;20516;-63
2022/03/12 08:28:34;;;;;;;6.03;2.87;;;5.40;32.50;;;;;;5014624;28;20223;-64
2022/03/12 08:31:01;;;;;;;3.87;2.70;;;5.30;32.10;;;;;;5015133;28;20196;-63
2022/03/12 08:33:26;;;;;;;5.77;3.50;;;5.30;31.80;;;;;;5014209;28;20160;-62
2022/03/12 08:35:53;;;;;;;6.57;3.07;;;5.30;31.70;;;;;;5014696;28;20166;-63
2022/03/12 08:38:19;;;;;;;6.30;3.20;;;5.50;31.80;;;;;;5014549;28;20166;-62
2022/03/12 08:40:46;;;;;;;5.03;3.17;;;5.60;31.70;;;;;;5014300;28;20285;-62
2022/03/12 08:43:12;;;;;;;6.47;2.93;;;5.70;31.70;;;;;;5014560;28;20161;-63
2022/03/12 08:45:38;;;;;;;8.40;3.10;;;5.80;31.40;;;;;;5013905;28;20165;-63
2022/03/12 08:48:04;;;;;;;3.67;2.47;;;5.80;31.20;;;;;;5014508;28;20168;-63
2022/03/12 08:50:30;;;;;;;5.83;3.13;;;6.00;31.30;;;;;;5014438;28;20164;-63
2022/03/12 08:52:57;;;;;;;3.93;2.90;;;6.00;30.90;;;;;;5014220;28;20176;-62
2022/03/12 08:55:23;;;;;;;5.90;2.77;;;5.90;30.80;;;;;;5014286;28;20169;-62
2022/03/12 08:57:49;;;;;;;4.10;2.60;;;6.00;30.60;;;;;;5013882;28;20167;-63
2022/03/12 09:00:16;;;;;;;4.43;2.83;;;6.00;30.30;;;;;;4996477;28;20713;-63
2022/03/12 09:02:42;;;;;;;4.03;2.83;;;6.20;30.20;;;;;;5014285;28;20180;-63
2022/03/12 09:05:10;;;;;;;3.77;2.53;;;6.10;29.90;;;;;;5014272;28;20510;-63
2022/03/12 09:07:36;;;;;;;4.60;2.90;;;6.20;30.00;;;;;;5013981;28;20164;-62
2022/03/12 09:10:05;;;;;;;4.83;3.03;;;6.30;30.00;;;;;;5014293;28;20215;-61
2022/03/12 09:12:31;;;;;;;4.00;2.83;;;6.40;30.00;;;;;;5013579;28;20158;-62
2022/03/12 09:14:57;;;;;;;5.50;2.90;;;6.30;29.60;;;;;;5014230;28;20257;-62
2022/03/12 09:17:23;;;;;;;6.27;3.57;;;6.50;29.70;;;;;;5013553;28;20637;-62
2022/03/12 09:19:48;;;;;;;5.90;3.00;;;6.60;29.40;;;;;;4996443;28;20270;-63
2022/03/12 09:22:14;;;;;;;5.17;2.90;;;6.60;29.40;;;;;;4996203;28;20178;-63
2022/03/12 09:24:40;;;;;;;4.77;3.03;;;6.80;29.20;;;;;;5014200;28;20217;-63
2022/03/12 09:27:06;;;;;;;4.37;2.73;;;6.80;29.00;;;;;;5013604;28;20711;-64
2022/03/12 09:29:33;;;;;;;5.10;2.90;;;7.00;28.70;;;;;;5014649;28;20257;-63
2022/03/12 09:32:00;;;;;;;6.10;3.10;;;7.00;28.50;;;;;;5016230;28;20181;-63
2022/03/12 09:34:25;;;;;;;3.50;2.50;;;7.10;28.50;;;;;;5014876;28;20162;-63
2022/03/12 09:36:51;;;;;;;5.60;2.87;;;7.30;28.70;;;;;;5013509;28;20256;-64
2022/03/12 09:39:17;;;;;;;5.53;3.23;;;7.30;28.60;;;;;;5013477;28;20602;-61
2022/03/12 09:41:43;;;;;;;5.30;3.33;;;7.10;28.50;;;;;;5013803;28;20577;-63
2022/03/12 09:44:09;;;;;;;5.97;3.13;;;7.20;28.60;;;;;;5012991;28;20203;-62
2022/03/12 09:46:35;;;;;;;5.17;3.33;;;7.20;28.30;;;;;;4995959;28;20258;-63
2022/03/12 09:49:02;;;;;;;4.53;3.13;;;7.20;28.40;;;;;;5014195;28;20192;-63
2022/03/12 09:51:29;;;;;;;5.20;3.17;;;7.40;28.30;;;;;;5014296;28;20521;-62
2022/03/12 09:53:58;;;;;;;4.67;2.93;;;7.50;28.30;;;;;;5013617;28;20194;-62
2022/03/12 09:56:24;;;;;;;5.33;2.83;;;7.70;28.10;;;;;;4996614;28;20228;-62
2022/03/12 09:58:50;;;;;;;6.77;3.33;;;7.80;27.80;;;;;;5013598;28;20192;-63
2022/03/12 10:01:16;;;;;;;4.57;3.00;;;7.80;27.70;;;;;;5013953;28;20244;-62
2022/03/12 10:03:42;;;;;;;5.50;3.00;;;7.90;27.60;;;;;;5013255;28;20561;-66
2022/03/12 10:06:08;;;;;;;4.70;2.63;;;7.80;27.30;;;;;;5013825;28;20219;-64
2022/03/12 10:08:34;;;;;;;4.90;3.40;;;7.90;27.40;;;;;;5013835;28;20184;-62
2022/03/12 10:11:00;;;;;;;4.57;3.27;;;8.20;27.60;;;;;;5013159;28;20507;-63
2022/03/12 10:13:25;;;;;;;6.17;3.00;;;8.10;27.50;;;;;;5011910;28;20485;-62
2022/03/12 10:15:51;;;;;;;5.53;3.30;;;8.30;27.50;;;;;;5013296;28;20172;-62
2022/03/12 10:18:19;;;;;;;6.83;2.63;;;8.10;27.10;;;;;;5013208;28;20223;-62
2022/03/12 10:20:45;;;;;;;5.13;2.87;;;8.10;27.00;;;;;;5013065;28;20192;-62
2022/03/12 10:23:11;;;;;;;6.80;4.03;;;8.20;26.80;;;;;;5015668;28;20581;-63
2022/03/12 10:25:38;;;;;;;6.37;3.33;;;8.20;26.80;;;;;;5018347;28;20521;-62
2022/03/12 10:28:04;;;;;;;5.07;2.87;;;8.20;26.60;;;;;;5000760;28;20249;-63
2022/03/12 10:30:30;;;;;;;3.67;2.37;;;8.20;26.50;;;;;;5000278;28;20605;-62
2022/03/12 10:32:55;;;;;;;5.73;3.37;;;8.40;26.60;;;;;;5017364;28;20177;-63
2022/03/12 10:35:22;;;;;;;4.87;3.20;;;8.30;26.50;;;;;;5016598;28;20241;-63
2022/03/12 10:37:53;;;;;;;4.80;3.10;;;8.40;26.70;;;;;;5017103;28;20581;-62
2022/03/12 10:40:30;;;;;;;4.23;2.73;;;8.50;26.70;;;;;;5016502;28;20205;-62
2022/03/12 10:43:15;;;;;;;6.30;3.23;;;8.50;26.60;;;;;;5016492;28;20180;-64
2022/03/12 10:45:43;;;;;;;6.30;3.43;;;8.70;26.80;;;;;;5018765;28;20207;-63
2022/03/12 10:48:09;;;;;;;8.53;3.80;;;8.60;26.80;;;;;;5017666;28;20181;-63
2022/03/12 10:50:43;;;;;;;5.93;3.37;;;8.80;26.90;;;;;;5016753;28;20172;-63
2022/03/12 10:53:11;;;;;;;8.87;4.63;;;8.70;26.80;;;;;;5016801;28;20187;-64
2022/03/12 10:55:44;;;;;;;5.07;3.00;;;9.00;26.80;;;;;;5017963;28;20197;-62
2022/03/12 10:58:12;;;;;;;4.60;3.13;;;8.80;26.40;;;;;;5018829;28;20169;-63
2022/03/12 11:00:39;;;;;;;4.57;2.97;;;8.90;26.50;;;;;;5017352;28;20533;-63
2022/03/12 11:03:11;;;;;;;6.00;3.30;;;8.90;26.40;;;;;;5016768;28;20199;-63
2022/03/12 11:05:37;;;;;;;4.13;3.00;;;9.00;26.50;;;;;;5019222;28;20190;-63
2022/03/12 11:08:09;;;;;;;4.00;3.17;;;8.90;26.50;;;;;;5017715;28;20600;-63
2022/03/12 11:10:37;;;;;;;6.17;4.07;;;8.90;26.60;;;;;;5017087;28;20259;-64
2022/03/12 11:13:04;;;;;;;5.57;3.70;;;8.90;26.60;;;;;;5017328;28;20157;-63
2022/03/12 11:15:32;;;;;;;9.67;4.87;;;9.00;26.60;;;;;;5015390;28;20276;-63
2022/03/12 11:17:58;;;;;;;7.57;3.77;;;9.00;26.70;;;;;;5017678;28;20183;-63
2022/03/12 11:20:25;;;;;;;7.23;3.63;;;8.90;26.70;;;;;;5017065;28;20201;-63
2022/03/12 11:22:52;;;;;;;5.97;4.20;;;9.10;27.00;;;;;;5016443;28;20184;-63
2022/03/12 11:25:22;;;;;;;4.83;3.33;;;9.00;27.00;;;;;;5017509;28;20246;-62
2022/03/12 11:27:51;;;;;;;7.33;3.80;;;9.00;27.00;;;;;;5017960;28;20374;-62
2022/03/12 11:30:22;;;;;;;9.17;4.10;;;9.00;27.00;;;;;;5017358;28;20617;-62
2022/03/12 11:33:03;;;;;;;6.77;3.70;;;9.40;27.20;;;;;;5016801;28;20239;-62
2022/03/12 11:35:44;;;;;;;7.00;3.70;;;9.30;26.90;;;;;;5016819;28;20264;-62
2022/03/12 11:38:18;;;;;;;5.57;3.60;;;9.40;27.00;;;;;;5016021;28;20161;-62
2022/03/12 11:40:50;;;;;;;6.43;3.80;;;9.40;27.00;;;;;;5015253;28;20717;-63
2022/03/12 11:43:31;;;;;;;5.03;3.37;;;9.40;26.80;;;;;;5015373;28;20543;-64
2022/03/12 11:46:00;;;;;;;4.97;3.43;;;9.20;26.80;;;;;;4998958;28;20169;-62
2022/03/12 11:48:27;;;;;;;5.27;3.53;;;9.20;26.80;;;;;;5016176;28;20257;-63
2022/03/12 11:50:53;;;;;;;4.67;3.23;;;9.20;26.80;;;;;;5016340;28;20173;-63
2022/03/12 11:53:19;;;;;;;5.37;3.57;;;9.30;27.00;;;;;;5015889;28;20514;-63
2022/03/12 11:55:51;;;;;;;6.37;3.53;;;9.50;27.00;;;;;;5015946;28;20299;-63
2022/03/12 11:58:18;;;;;;;6.13;3.33;;;9.50;26.70;;;;;;5015191;28;20207;-63
2022/03/12 12:00:46;;;;;;;5.60;3.60;;;9.40;26.30;;;;;;5015396;28;20328;-63
2022/03/12 12:03:14;;;;;;;5.40;3.67;;;9.40;26.30;;;;;;5016045;28;20180;-63
2022/03/12 12:05:44;;;;;;;11.40;4.07;;;9.60;26.40;;;;;;5015896;28;20162;-62
2022/03/12 12:08:14;;;;;;;7.33;3.10;;;9.70;26.50;;;;;;5015590;28;20166;-63
2022/03/12 12:10:43;;;;;;;7.03;3.50;;;9.60;26.20;;;;;;5015475;28;20166;-64
2022/03/12 12:13:12;;;;;;;6.03;4.13;;;9.40;26.10;;;;;;5015676;28;20162;-63
2022/03/12 12:15:39;;;;;;;6.27;4.17;;;9.70;26.70;;;;;;5015789;28;20170;-63
2022/03/12 12:18:07;;;;;;;4.90;3.27;;;9.70;26.60;;;;;;4998363;28;20620;-64
2022/03/12 12:20:34;;;;;;;7.27;3.40;;;9.90;26.70;;;;;;5015920;28;20616;-63
2022/03/12 12:23:01;;;;;;;7.13;3.80;;;9.70;26.30;;;;;;5015581;28;20173;-64
2022/03/12 12:25:31;;;;;;;8.87;4.17;;;9.80;26.30;;;;;;4999812;28;20227;-64
2022/03/12 12:27:57;;;;;;;7.37;3.97;;;9.70;26.30;;;;;;5015230;28;20237;-62
2022/03/12 12:30:38;;;;;;;5.00;3.47;;;9.90;26.50;;;;;;5014769;28;20215;-63
2022/03/12 12:33:15;;;;;;;7.33;3.50;;;9.80;26.40;;;;;;5014829;28;20157;-62
2022/03/12 12:35:44;;;;;;;6.67;3.77;;;9.70;26.10;;;;;;5014022;28;20613;-63
2022/03/12 12:38:11;;;;;;;9.57;3.80;;;9.90;26.30;;;;;;5014939;28;20235;-62
2022/03/12 12:40:48;;;;;;;6.33;3.93;;;9.80;26.10;;;;;;5015181;28;20205;-63
2022/03/12 12:43:34;;;;;;;5.00;3.47;;;10.10;25.60;;;;;;5014498;28;20175;-63
2022/03/12 12:46:14;;;;;;;7.43;3.53;;;10.10;25.70;;;;;;5016023;28;20173;-62
2022/03/12 12:48:50;;;;;;;7.83;3.90;;;10.10;25.60;;;;;;5016015;28;20176;-63
2022/03/12 12:51:20;;;;;;;5.17;3.33;;;10.20;25.60;;;;;;5013924;28;20248;-63
2022/03/12 12:53:49;;;;;;;5.10;3.50;;;10.10;25.30;;;;;;5014897;28;20240;-63
2022/03/12 12:56:36;;;;;;;5.40;3.43;;;10.20;25.30;;;;;;5014581;28;20216;-62
2022/03/12 12:59:04;;;;;;;6.03;3.30;;;10.00;25.00;;;;;;5014264;28;20216;-61
2022/03/12 13:01:45;;;;;;;5.27;3.53;;;10.10;25.00;;;;;;5013919;28;20644;-65